Native Sun — WDH8179 — position and weather

sailwx.info

Track history (hours):
 
Tides and Currents Weather Stations Pressure Air Temp Water Temp Dewpoint Dewpoint Depression Visibility Wind Speed Wind Dir Waves Ship Positions

Native Sun

Owner: LMB Sportfishing Inc., San Pedro, CA. More information available from US FCC via Universal Licensing System and Coast Guard Vessel Documentation Center.

Last reported at 2017-Oct-21 23:23 UTC. Time now 2017-Nov-22 02:01 UTC.
Position N 33°43' W 118°17'.
Warning: this ship's position is 31 days out of date.

Length 23 m.

Type: Passenger vessel. MMSI: 367655460.

Date/timePositionNaut miles runAvg speedWind from/ knotsBaromVisibWave heightAir tempDewpointWater temp
2017-Oct-21 23:23N 33°43' W 118°17'1 3.4
2017-Oct-21 23:00N 33°42' W 118°17'3 0.4
2017-Oct-21 15:02N 33°42' W 118°21'1 9.3
2017-Oct-21 14:54N 33°42' W 118°19'  
2017-Oct-15 01:49N 33°43' W 118°17'0 0.0
2017-Oct-15 01:30N 33°43' W 118°17'2 3.2
2017-Oct-15 01:00N 33°42' W 118°16'9 1.0
2017-Oct-14 15:43N 33°45' W 118°26'2 9.2
2017-Oct-14 15:30N 33°44' W 118°24'5 9.5
2017-Oct-14 15:00N 33°42' W 118°18'3 6.5
2017-Oct-14 14:30N 33°43' W 118°15'  
Track history (hours):
 
Tides and Currents Weather Stations Pressure Air Temp Water Temp Dewpoint Dewpoint Depression Visibility Wind Speed Wind Dir Waves Ship Positions

Native Sun

Owner: LMB Sportfishing Inc., San Pedro, CA. More information available from US FCC via Universal Licensing System and Coast Guard Vessel Documentation Center.

Last reported at 2017-Oct-21 23:23 UTC. Time now 2017-Nov-22 02:01 UTC.
Position N 33°43' W 118°17'.
Warning: this ship's position is 31 days out of date.

Length 23 m.

Type: Passenger vessel. MMSI: 367655460.

Date/timePositionNaut miles runAvg speedWind from/ knotsBaromVisibWave heightAir tempDewpointWater temp
2017-Oct-21 23:23N 33°43' W 118°17'1 3.4
2017-Oct-21 23:00N 33°42' W 118°17'3 0.4
2017-Oct-21 15:02N 33°42' W 118°21'1 9.3
2017-Oct-21 14:54N 33°42' W 118°19'  
2017-Oct-15 01:49N 33°43' W 118°17'0 0.0
2017-Oct-15 01:30N 33°43' W 118°17'2 3.2
2017-Oct-15 01:00N 33°42' W 118°16'9 1.0
2017-Oct-14 15:43N 33°45' W 118°26'2 9.2
2017-Oct-14 15:30N 33°44' W 118°24'5 9.5
2017-Oct-14 15:00N 33°42' W 118°18'3 6.5
2017-Oct-14 14:30N 33°43' W 118°15'  

Dump ship's entire track history